createdAt,value
2023-03-08T00:00:01.698Z,98846.88
2023-03-08T00:02:32.961Z,98994.75
2023-03-08T00:05:07.399Z,98897.00
2023-03-08T00:07:40.001Z,99031.97
2023-03-08T00:10:13.290Z,99013.78
2023-03-08T00:12:48.686Z,98959.28
2023-03-08T00:15:17.506Z,99038.88
2023-03-08T00:17:48.962Z,98931.59
2023-03-08T00:20:21.061Z,98962.75
2023-03-08T00:22:52.754Z,99050.97
2023-03-08T00:25:21.075Z,98967.81
2023-03-08T00:27:51.459Z,99064.78
2023-03-08T00:30:20.105Z,98935.03
2023-03-08T00:32:48.555Z,99036.19
2023-03-08T00:35:20.357Z,98997.19
2023-03-08T00:37:53.697Z,99076.00
2023-03-08T00:40:22.188Z,99073.41
2023-03-08T00:42:54.161Z,99028.44
2023-03-08T00:45:26.233Z,99080.38
2023-03-08T00:47:54.454Z,99087.28
2023-03-08T00:50:26.795Z,99045.72
2023-03-08T00:52:56.891Z,99016.25
2023-03-08T00:55:27.703Z,98953.97
2023-03-08T00:58:00.916Z,99097.69
2023-03-08T01:00:30.893Z,99076.88
2023-03-08T01:03:04.665Z,99109.78
2023-03-08T01:05:38.099Z,99094.19
2023-03-08T01:08:07.293Z,99114.91
2023-03-08T01:10:38.624Z,99075.16
2023-03-08T01:13:10.292Z,99073.41
2023-03-08T01:15:42.083Z,99031.88
2023-03-08T01:18:11.366Z,99103.66
2023-03-08T01:20:39.664Z,99020.47
2023-03-08T01:23:11.968Z,99107.97
2023-03-08T01:25:40.773Z,99030.03
2023-03-08T01:28:18.536Z,99075.00
2023-03-08T01:30:46.927Z,99118.31
2023-03-08T01:33:17.090Z,99082.00
2023-03-08T01:35:48.875Z,99028.28
2023-03-08T01:38:19.687Z,99088.91
2023-03-08T01:40:48.291Z,99114.88
2023-03-08T01:43:27.083Z,99128.69
2023-03-08T01:46:11.344Z,99083.69
2023-03-08T01:48:48.013Z,99118.31
2023-03-08T01:51:24.077Z,99036.09
2023-03-08T01:54:00.181Z,99118.31
2023-03-08T01:56:28.558Z,99086.97
2023-03-08T01:59:02.159Z,98998.69
2023-03-08T02:01:37.913Z,99063.53
2023-03-08T02:04:10.535Z,99111.19
2023-03-08T02:06:41.472Z,99135.34
2023-03-08T02:09:14.413Z,99142.38
2023-03-08T02:11:45.949Z,99135.44
2023-03-08T02:14:19.465Z,99143.13
2023-03-08T02:16:50.791Z,99058.84
2023-03-08T02:19:27.211Z,99067.78
2023-03-08T02:21:55.897Z,99154.34
2023-03-08T02:24:38.167Z,99163.88
2023-03-08T02:27:19.996Z,99142.38
2023-03-08T02:29:48.855Z,99021.06
2023-03-08T02:32:17.960Z,99159.78
2023-03-08T02:34:49.380Z,99171.97
2023-03-08T02:37:20.183Z,98931.19
2023-03-08T02:39:53.644Z,99159.81
2023-03-08T02:42:32.112Z,99182.19
2023-03-08T02:45:01.254Z,99153.47
2023-03-08T02:47:29.641Z,99124.81
2023-03-08T02:49:58.472Z,99190.88
2023-03-08T02:52:27.100Z,99166.56
2023-03-08T02:54:57.078Z,99190.78
2023-03-08T02:57:25.648Z,99199.47
2023-03-08T02:59:54.551Z,99177.88
2023-03-08T03:02:23.555Z,99199.44
2023-03-08T03:04:52.307Z,99150.72
2023-03-08T03:07:20.564Z,99179.44
2023-03-08T03:09:49.002Z,99164.81
2023-03-08T03:12:19.467Z,99192.53
2023-03-08T03:14:47.693Z,99208.09
2023-03-08T03:17:16.872Z,99218.47
2023-03-08T03:19:45.486Z,99217.53
2023-03-08T03:22:18.392Z,99128.38
2023-03-08T03:24:47.621Z,99190.00
2023-03-08T03:27:16.290Z,99215.03
2023-03-08T03:29:46.601Z,99199.41
2023-03-08T03:32:15.623Z,99199.53
2023-03-08T03:34:44.296Z,99224.50
2023-03-08T03:37:13.042Z,99208.69
2023-03-08T03:39:41.905Z,99187.19
2023-03-08T03:42:12.249Z,99238.53
2023-03-08T03:44:41.472Z,99194.41
2023-03-08T03:47:11.936Z,99080.13
2023-03-08T03:49:40.273Z,99158.25
2023-03-08T03:52:08.977Z,99149.47
2023-03-08T03:54:42.167Z,99176.91
2023-03-08T03:57:11.002Z,99153.44
2023-03-08T03:59:39.687Z,99213.47
2023-03-08T04:02:11.974Z,99239.53
2023-03-08T04:04:41.784Z,99236.13
2023-03-08T04:07:12.925Z,99239.47
2023-03-08T04:09:41.313Z,99260.13
2023-03-08T04:12:10.029Z,99237.63
2023-03-08T04:14:40.752Z,99174.09
2023-03-08T04:17:10.732Z,99265.03
2023-03-08T04:19:39.826Z,99247.78
2023-03-08T04:22:10.138Z,99190.22
2023-03-08T04:24:38.562Z,99277.06
2023-03-08T04:27:07.256Z,99191.03
2023-03-08T04:29:35.838Z,99263.72
2023-03-08T04:32:04.354Z,99264.69
2023-03-08T04:34:32.724Z,99282.28
2023-03-08T04:37:01.746Z,99218.09
2023-03-08T04:39:31.843Z,99223.44
2023-03-08T04:42:00.596Z,99297.22
2023-03-08T04:44:29.500Z,99296.38
2023-03-08T04:46:59.111Z,99304.13
2023-03-08T04:49:28.350Z,99313.38
2023-03-08T04:51:57.135Z,99279.56
2023-03-08T04:54:25.929Z,99294.09
2023-03-08T04:56:55.739Z,99326.84
2023-03-08T04:59:24.342Z,99318.19
2023-03-08T05:01:52.618Z,99225.31
2023-03-08T05:04:21.116Z,99226.19
2023-03-08T05:06:49.786Z,99317.59
2023-03-08T05:09:18.178Z,99233.13
2023-03-08T05:11:46.524Z,99251.50
2023-03-08T05:14:16.728Z,99262.97
2023-03-08T05:16:45.084Z,99325.38
2023-03-08T05:19:13.695Z,99307.22
2023-03-08T05:21:42.132Z,99172.00
2023-03-08T05:24:11.954Z,99226.66
2023-03-08T05:26:40.982Z,99285.50
2023-03-08T05:29:09.988Z,99321.94
2023-03-08T05:31:40.396Z,99259.34
2023-03-08T05:34:11.709Z,99328.75
2023-03-08T05:36:40.279Z,99238.09
2023-03-08T05:39:08.600Z,99283.84
2023-03-08T05:41:37.760Z,99301.22
2023-03-08T05:44:06.644Z,99351.25
2023-03-08T05:46:35.327Z,99345.16
2023-03-08T05:49:07.004Z,99282.41
2023-03-08T05:51:44.601Z,99341.63
2023-03-08T05:54:13.016Z,99351.16
2023-03-08T05:56:41.310Z,99343.34
2023-03-08T05:59:09.508Z,99268.56
2023-03-08T06:01:38.008Z,99288.19
2023-03-08T06:04:07.796Z,99360.63
2023-03-08T06:06:36.793Z,99234.88
2023-03-08T06:09:05.937Z,99362.34
2023-03-08T06:11:35.699Z,99358.97
2023-03-08T06:14:05.432Z,99371.84
2023-03-08T06:16:37.811Z,99232.75
2023-03-08T06:19:34.239Z,99301.53
2023-03-08T06:22:09.054Z,99352.22
2023-03-08T06:24:41.516Z,99295.94
2023-03-08T06:27:12.720Z,99340.41
2023-03-08T06:29:41.157Z,99361.25
2023-03-08T06:32:09.769Z,99382.13
2023-03-08T06:34:42.826Z,99377.09
2023-03-08T06:37:11.069Z,99369.97
2023-03-08T06:39:39.960Z,99335.09
2023-03-08T06:42:10.003Z,99379.38
2023-03-08T06:44:43.499Z,99315.50
2023-03-08T06:47:12.107Z,99228.81
2023-03-08T06:49:42.192Z,99264.47
2023-03-08T06:52:14.445Z,99365.16
2023-03-08T06:54:43.264Z,99391.22
2023-03-08T06:57:14.825Z,99365.69
2023-03-08T06:59:44.381Z,99361.53
2023-03-08T07:02:16.447Z,99360.06
2023-03-08T07:04:50.095Z,99398.22
2023-03-08T07:07:21.178Z,99341.47
2023-03-08T07:09:50.518Z,99330.41
2023-03-08T07:12:22.655Z,99333.94
2023-03-08T07:14:53.639Z,99419.31
2023-03-08T07:17:25.693Z,99284.06
2023-03-08T07:19:55.612Z,99323.16
2023-03-08T07:22:27.984Z,99384.13
2023-03-08T07:25:09.785Z,99330.25
2023-03-08T07:27:44.785Z,99357.22
2023-03-08T07:30:15.539Z,99338.13
2023-03-08T07:32:45.123Z,99391.09
2023-03-08T07:35:21.786Z,99338.16
2023-03-08T07:37:50.304Z,99346.97
2023-03-08T07:40:22.985Z,99252.28
2023-03-08T07:43:03.266Z,99411.19
2023-03-08T07:45:38.884Z,99427.88
2023-03-08T07:48:14.811Z,99390.69
2023-03-08T07:50:53.068Z,99316.00
2023-03-08T07:53:25.760Z,99342.16
2023-03-08T07:55:57.814Z,99428.66
2023-03-08T07:58:32.318Z,99407.53
2023-03-08T08:01:03.870Z,99447.44
2023-03-08T08:03:34.455Z,99399.63
2023-03-08T08:06:06.697Z,99385.63
2023-03-08T08:08:52.673Z,99422.09
2023-03-08T08:11:21.429Z,99429.03
2023-03-08T08:13:49.773Z,99469.03
2023-03-08T08:16:22.654Z,99466.44
2023-03-08T08:18:56.277Z,99320.25
2023-03-08T08:21:27.615Z,99290.63
2023-03-08T08:23:59.501Z,99360.56
2023-03-08T08:26:32.162Z,99355.41
2023-03-08T08:29:03.097Z,99316.66
2023-03-08T08:31:36.528Z,99366.84
2023-03-08T08:34:08.655Z,99391.63
2023-03-08T08:36:44.744Z,99449.09
2023-03-08T08:39:17.135Z,99502.13
2023-03-08T08:41:51.626Z,99400.47
2023-03-08T08:44:24.326Z,99484.19
2023-03-08T08:46:58.456Z,99373.00
2023-03-08T08:49:28.736Z,99373.19
2023-03-08T08:52:01.169Z,99276.78
2023-03-08T08:54:30.229Z,99428.97
2023-03-08T08:57:01.764Z,99295.03
2023-03-08T08:59:31.236Z,99414.88
2023-03-08T09:02:03.152Z,99466.28
2023-03-08T09:04:35.611Z,99471.81
2023-03-08T09:07:10.370Z,99354.53
2023-03-08T09:09:46.239Z,99458.97
2023-03-08T09:12:16.229Z,99279.09
2023-03-08T09:14:48.001Z,99392.22
2023-03-08T09:17:20.516Z,99314.16
2023-03-08T09:19:49.713Z,99473.25
2023-03-08T09:22:22.093Z,99439.56
2023-03-08T09:24:54.404Z,99294.75
2023-03-08T09:27:23.673Z,99301.72
2023-03-08T09:32:41.650Z,99473.44
2023-03-08T09:35:11.786Z,99355.38
2023-03-08T09:37:47.808Z,99428.41
2023-03-08T09:40:27.796Z,99487.50
2023-03-08T09:43:33.993Z,99277.53
2023-03-08T09:46:27.418Z,99358.38
2023-03-08T09:49:27.587Z,99354.13
2023-03-08T09:52:13.183Z,99496.47
2023-03-08T09:55:13.850Z,99408.81
2023-03-08T09:58:06.413Z,99370.66
2023-03-08T10:01:18.902Z,99373.28
2023-03-08T10:04:23.752Z,99432.25
2023-03-08T10:07:30.598Z,99378.53
2023-03-08T10:10:39.921Z,99319.56
2023-03-08T10:13:38.450Z,99360.28
2023-03-08T10:16:26.689Z,99494.75
2023-03-08T10:19:22.111Z,99501.72
2023-03-08T10:21:58.221Z,99505.19
2023-03-08T10:24:36.700Z,99316.94
2023-03-08T10:27:31.548Z,99281.41
2023-03-08T10:30:06.097Z,99359.44
2023-03-08T10:32:47.594Z,99492.06
2023-03-08T10:35:17.557Z,99392.25
2023-03-08T10:38:09.797Z,99396.72
2023-03-08T10:40:48.347Z,99477.41
2023-03-08T10:43:36.110Z,99404.53
2023-03-08T10:46:17.853Z,99362.88
2023-03-08T10:51:35.350Z,99456.59
2023-03-08T10:54:10.824Z,99522.56
2023-03-08T10:56:46.269Z,99480.88
2023-03-08T10:59:24.341Z,99522.50
2023-03-08T11:02:02.687Z,99529.47
2023-03-08T11:04:42.647Z,99368.13
2023-03-08T11:07:32.401Z,99359.44
2023-03-08T11:13:09.494Z,99470.47
2023-03-08T11:15:54.819Z,99528.63
2023-03-08T11:18:52.196Z,99535.53
2023-03-08T11:21:59.917Z,99453.97
2023-03-08T11:25:11.592Z,99541.66
2023-03-08T11:28:10.738Z,99434.03
2023-03-08T11:31:21.001Z,99542.50
2023-03-08T11:34:31.913Z,99348.16
2023-03-08T11:47:02.966Z,99355.97
2023-03-08T11:50:15.087Z,99521.59
2023-03-08T11:53:14.762Z,99371.56
2023-03-08T11:56:28.181Z,99489.56
2023-03-08T11:59:22.108Z,99548.53
2023-03-08T12:02:16.562Z,99489.50
2023-03-08T12:05:02.943Z,99349.81
2023-03-08T12:07:53.651Z,99465.03
2023-03-08T12:10:56.340Z,99538.75
2023-03-08T12:13:45.490Z,99366.25
2023-03-08T12:16:29.731Z,99414.03
2023-03-08T12:19:13.591Z,99527.47
2023-03-08T12:22:10.754Z,99347.06
2023-03-08T12:25:03.182Z,99459.63
2023-03-08T12:28:11.569Z,99340.03
2023-03-08T12:31:07.856Z,99338.44
2023-03-08T12:34:03.006Z,99475.53
2023-03-08T12:40:02.664Z,99528.16
2023-03-08T12:42:36.997Z,99451.06
2023-03-08T12:45:41.924Z,99522.25
2023-03-08T12:48:29.773Z,99331.53
2023-03-08T12:51:11.741Z,99416.47
2023-03-08T12:53:50.972Z,99457.25
2023-03-08T12:56:32.987Z,99532.69
2023-03-08T12:59:13.246Z,99472.00
2023-03-08T13:01:50.140Z,99464.91
2023-03-08T13:04:42.370Z,99534.38
2023-03-08T13:07:31.399Z,99367.91
2023-03-08T13:10:27.133Z,99416.34
2023-03-08T13:13:37.976Z,99451.00
2023-03-08T13:16:26.001Z,99463.34
2023-03-08T13:19:06.772Z,99418.41
2023-03-08T13:21:45.460Z,99483.41
2023-03-08T13:24:42.253Z,99346.31
2023-03-08T13:27:26.430Z,99357.59
2023-03-08T13:30:00.378Z,99416.63
2023-03-08T13:32:32.923Z,99377.66
2023-03-08T13:35:07.475Z,99472.19
2023-03-08T13:37:37.413Z,99439.22
2023-03-08T13:40:17.824Z,99435.69
2023-03-08T13:43:06.051Z,99470.44
2023-03-08T13:45:42.434Z,99513.72
2023-03-08T13:48:25.911Z,99375.88
2023-03-08T13:51:06.823Z,99471.25
2023-03-08T13:56:55.508Z,99395.75
2023-03-08T13:59:59.737Z,99375.00
2023-03-08T14:02:49.490Z,99484.25
2023-03-08T14:05:23.133Z,99474.66
2023-03-08T14:08:01.082Z,99544.91
2023-03-08T14:10:38.554Z,99456.34
2023-03-08T14:13:10.699Z,99383.53
2023-03-08T14:15:41.711Z,99416.50
2023-03-08T14:18:27.272Z,99551.91
2023-03-08T14:21:18.479Z,99396.63
2023-03-08T14:24:53.933Z,99429.66
2023-03-08T14:27:42.015Z,99547.66
2023-03-08T14:30:23.761Z,99457.38
2023-03-08T14:33:42.124Z,99444.44
2023-03-08T14:36:31.146Z,99415.78
2023-03-08T14:39:28.600Z,99414.81
2023-03-08T14:42:16.578Z,99458.34
2023-03-08T14:45:28.459Z,99427.94
2023-03-08T14:48:08.905Z,99496.47
2023-03-08T14:51:08.468Z,99413.22
2023-03-08T14:54:09.828Z,99528.63
2023-03-08T14:56:53.959Z,99360.31
2023-03-08T15:06:10.408Z,99538.16
2023-03-08T15:09:01.010Z,99359.44
2023-03-08T15:11:52.833Z,99523.41
2023-03-08T15:14:39.372Z,99424.50
2023-03-08T15:17:23.368Z,99487.81
2023-03-08T15:20:01.886Z,99534.69
2023-03-08T15:22:45.614Z,99548.59
2023-03-08T15:25:41.651Z,99382.81
2023-03-08T15:28:19.903Z,99414.06
2023-03-08T15:30:51.222Z,99420.13
2023-03-08T15:33:23.884Z,99501.72
2023-03-08T15:36:00.734Z,99437.50
2023-03-08T15:38:44.587Z,99380.25
2023-03-08T15:41:17.926Z,99546.84
2023-03-08T15:43:51.082Z,99546.84
2023-03-08T15:46:24.443Z,99350.75
2023-03-08T15:48:52.974Z,99539.84
2023-03-08T15:54:16.094Z,99529.47
2023-03-08T15:56:44.946Z,99551.22
2023-03-08T16:04:46.253Z,99555.50
2023-03-08T16:07:32.866Z,99546.78
2023-03-08T16:10:12.376Z,99472.13
2023-03-08T16:12:42.144Z,99473.91
2023-03-08T16:15:14.928Z,99479.13
2023-03-08T16:17:56.118Z,99393.25
2023-03-08T16:20:30.617Z,99480.81
2023-03-08T16:23:07.325Z,99413.16
2023-03-08T16:25:42.642Z,99442.69
2023-03-08T16:28:38.317Z,99438.34
2023-03-08T16:31:17.277Z,99364.63
2023-03-08T16:33:55.544Z,99499.06
2023-03-08T16:36:53.880Z,99427.06
2023-03-08T16:39:27.969Z,99467.81
2023-03-08T16:42:28.223Z,99510.31
2023-03-08T16:44:59.615Z,99440.91
2023-03-08T16:47:36.076Z,99520.75
2023-03-08T16:50:12.722Z,99512.94
2023-03-08T16:52:40.976Z,99494.72
2023-03-08T16:55:13.567Z,99522.50
2023-03-08T16:57:44.617Z,99535.53
2023-03-08T17:00:20.235Z,99471.28
2023-03-08T17:02:48.716Z,99488.66
2023-03-08T17:08:52.373Z,99567.69
2023-03-08T17:11:22.821Z,99524.25
2023-03-08T17:13:56.736Z,99564.16
2023-03-08T17:16:29.399Z,99453.09
2023-03-08T17:19:04.057Z,99440.94
2023-03-08T17:21:40.122Z,99558.97
2023-03-08T17:24:11.190Z,99507.78
2023-03-08T17:26:44.430Z,99485.22
2023-03-08T17:29:15.194Z,99528.63
2023-03-08T17:31:49.054Z,99565.97
2023-03-08T17:34:18.811Z,99567.72
2023-03-08T17:37:02.514Z,99428.78
2023-03-08T17:39:40.633Z,99557.28
2023-03-08T17:42:12.010Z,99567.72
2023-03-08T17:44:56.516Z,99475.66
2023-03-08T17:47:24.835Z,99557.25
2023-03-08T17:50:04.473Z,99534.66
2023-03-08T17:52:32.893Z,99566.81
2023-03-08T17:55:01.636Z,99573.78
2023-03-08T17:57:30.664Z,99578.09
2023-03-08T18:00:00.665Z,99532.97
2023-03-08T18:02:29.230Z,99498.22
2023-03-08T18:05:00.403Z,99506.91
2023-03-08T18:07:36.576Z,99564.22
2023-03-08T18:10:33.033Z,99491.31
2023-03-08T18:13:04.510Z,99572.88
2023-03-08T18:15:40.347Z,99480.84
2023-03-08T18:18:10.207Z,99562.47
2023-03-08T18:20:40.275Z,99520.75
2023-03-08T18:23:08.826Z,99564.19
2023-03-08T18:25:39.075Z,99571.97
2023-03-08T18:28:07.951Z,99534.63
2023-03-08T18:30:39.614Z,99423.50
2023-03-08T18:33:08.117Z,99519.84
2023-03-08T18:35:44.334Z,99576.34
2023-03-08T18:38:14.703Z,99469.50
2023-03-08T18:40:43.644Z,99525.06
2023-03-08T18:43:15.978Z,99488.63
2023-03-08T18:45:53.339Z,99564.16
2023-03-08T18:48:24.743Z,99464.25
2023-03-08T18:50:59.382Z,99581.50
2023-03-08T18:53:32.215Z,99525.88
2023-03-08T18:56:10.658Z,99567.59
2023-03-08T18:58:44.899Z,99569.22
2023-03-08T19:01:27.177Z,99492.69
2023-03-08T19:04:00.992Z,99579.50
2023-03-08T19:06:48.013Z,99576.94
2023-03-08T19:09:22.993Z,99456.09
2023-03-08T19:11:53.313Z,99508.22
2023-03-08T19:14:23.628Z,99548.22
2023-03-08T19:16:53.827Z,99575.94
2023-03-08T19:19:25.772Z,99513.28
2023-03-08T19:21:56.127Z,99470.69
2023-03-08T19:24:24.466Z,99563.63
2023-03-08T19:27:04.062Z,99541.06
2023-03-08T19:29:39.702Z,99370.72
2023-03-08T19:32:30.837Z,99570.59
2023-03-08T19:35:16.849Z,99565.38
2023-03-08T19:37:54.206Z,99343.00
2023-03-08T19:40:41.400Z,99364.84
2023-03-08T19:43:16.200Z,99410.75
2023-03-08T19:45:56.043Z,99525.63
2023-03-08T19:48:27.478Z,99567.41
2023-03-08T19:50:57.148Z,99566.59
2023-03-08T19:53:28.462Z,99544.88
2023-03-08T19:56:03.336Z,99585.59
2023-03-08T19:58:31.644Z,99575.16
2023-03-08T20:01:05.844Z,99573.41
2023-03-08T20:03:40.640Z,99586.31
2023-03-08T20:06:09.725Z,99575.88
2023-03-08T20:08:41.520Z,99584.44
2023-03-08T20:11:09.969Z,99554.09
2023-03-08T20:13:38.393Z,99547.13
2023-03-08T20:16:07.859Z,99575.88
2023-03-08T20:18:37.629Z,99579.38
2023-03-08T20:21:06.738Z,99575.88
2023-03-08T20:23:35.691Z,99585.47
2023-03-08T20:26:04.682Z,99534.91
2023-03-08T20:28:32.885Z,99589.69
2023-03-08T20:31:10.426Z,99593.13
2023-03-08T20:33:40.912Z,99530.50
2023-03-08T20:36:09.958Z,99583.50
2023-03-08T20:38:39.228Z,99551.25
2023-03-08T20:41:12.123Z,99579.97
2023-03-08T20:43:41.481Z,99565.97
2023-03-08T20:46:11.798Z,99572.06
2023-03-08T20:48:44.099Z,99582.38
2023-03-08T20:51:14.224Z,99585.88
2023-03-08T20:53:42.631Z,99572.84
2023-03-08T20:56:13.218Z,99490.00
2023-03-08T20:58:44.222Z,99443.06
2023-03-08T21:01:21.443Z,99563.09
2023-03-08T21:03:59.640Z,99596.91
2023-03-08T21:06:33.962Z,99510.00
2023-03-08T21:09:02.633Z,99469.16
2023-03-08T21:11:31.378Z,99590.94
2023-03-08T21:14:00.341Z,99585.72
2023-03-08T21:16:30.460Z,99592.59
2023-03-08T21:19:02.645Z,99590.84
2023-03-08T21:21:33.792Z,99585.63
2023-03-08T21:24:05.028Z,99507.19
2023-03-08T21:26:36.749Z,99451.69
2023-03-08T21:29:10.340Z,99580.47
2023-03-08T21:31:47.328Z,99568.25
2023-03-08T21:34:19.530Z,99573.41
2023-03-08T21:36:48.505Z,99448.13
2023-03-08T21:39:17.221Z,99585.41
2023-03-08T21:41:48.447Z,99535.19
2023-03-08T21:44:27.280Z,99557.84
2023-03-08T21:46:57.190Z,99582.19
2023-03-08T21:49:28.888Z,99579.63
2023-03-08T21:52:05.900Z,99535.31
2023-03-08T21:54:34.758Z,99570.88
2023-03-08T21:57:03.624Z,99446.41
2023-03-08T21:59:33.152Z,99471.47
2023-03-08T22:02:02.592Z,99505.38
2023-03-08T22:04:34.899Z,99540.06
2023-03-08T22:07:03.709Z,99587.94
2023-03-08T22:09:32.144Z,99590.47
2023-03-08T22:12:00.599Z,99453.03
2023-03-08T22:14:30.078Z,99545.34
2023-03-08T22:16:58.947Z,99503.59
2023-03-08T22:19:28.001Z,99531.50
2023-03-08T22:22:01.015Z,99557.50
2023-03-08T22:24:29.480Z,99571.38
2023-03-08T22:26:57.870Z,99571.28
2023-03-08T22:29:26.428Z,99578.22
2023-03-08T22:31:56.509Z,99575.66
2023-03-08T22:34:25.058Z,99487.56
2023-03-08T22:36:56.868Z,99491.91
2023-03-08T22:39:28.712Z,99472.94
2023-03-08T22:41:59.964Z,99530.44
2023-03-08T22:44:36.867Z,99557.56
2023-03-08T22:47:08.262Z,99557.56
2023-03-08T22:49:36.519Z,99448.91
2023-03-08T22:52:05.172Z,99590.53
2023-03-08T22:54:35.208Z,99521.00
2023-03-08T22:57:03.919Z,99549.38
2023-03-08T22:59:34.611Z,99483.28
2023-03-08T23:02:07.394Z,99524.00
2023-03-08T23:04:37.540Z,99504.41
2023-03-08T23:07:06.047Z,99563.66
2023-03-08T23:09:41.360Z,99554.13
2023-03-08T23:12:12.790Z,99583.91
2023-03-08T23:14:41.218Z,99520.13
2023-03-08T23:17:10.425Z,99581.03
2023-03-08T23:19:45.306Z,99592.44
2023-03-08T23:22:17.114Z,99586.19
2023-03-08T23:24:49.784Z,99560.06
2023-03-08T23:27:18.741Z,99594.91
2023-03-08T23:29:47.742Z,99432.13
2023-03-08T23:32:16.228Z,99531.31
2023-03-08T23:34:45.089Z,99494.03
2023-03-08T23:37:15.717Z,99586.19
2023-03-08T23:39:44.199Z,99563.59
2023-03-08T23:42:14.170Z,99591.38
2023-03-08T23:44:42.450Z,99581.19
2023-03-08T23:47:11.285Z,99579.38
2023-03-08T23:49:40.142Z,99518.16
2023-03-08T23:52:08.630Z,99595.84
2023-03-08T23:54:40.209Z,99533.97
2023-03-08T23:57:12.125Z,99485.28
2023-03-08T23:59:47.210Z,99588.91
